createdAt,value
2018-08-04T00:00:22.703Z,10.58
2018-08-04T00:02:52.682Z,11.68
2018-08-04T00:05:22.653Z,12.10
2018-08-04T00:07:52.593Z,10.43
2018-08-04T00:10:22.685Z,11.03
2018-08-04T00:12:52.938Z,10.23
2018-08-04T00:15:23.028Z,11.25
2018-08-04T00:17:53.022Z,10.68
2018-08-04T00:20:23.013Z,10.35
2018-08-04T00:22:52.994Z,12.47
2018-08-04T00:25:22.987Z,12.63
2018-08-04T00:27:52.959Z,11.78
2018-08-04T00:30:22.959Z,13.65
2018-08-04T00:32:52.946Z,11.25
2018-08-04T00:35:22.958Z,11.43
2018-08-04T00:37:52.977Z,12.07
2018-08-04T00:40:22.987Z,11.75
2018-08-04T00:42:52.986Z,13.25
2018-08-04T00:45:22.873Z,11.30
2018-08-04T00:47:52.738Z,11.08
2018-08-04T00:50:22.726Z,11.33
2018-08-04T00:52:52.762Z,11.48
2018-08-04T00:55:22.738Z,11.83
2018-08-04T00:57:52.735Z,10.80
2018-08-04T01:00:22.762Z,11.10
2018-08-04T01:02:52.788Z,11.55
2018-08-04T01:05:22.785Z,12.15
2018-08-04T01:07:53.015Z,11.40
2018-08-04T01:10:23.015Z,13.68
2018-08-04T01:12:52.826Z,11.83
2018-08-04T01:15:22.687Z,14.00
2018-08-04T01:17:52.723Z,11.75
2018-08-04T01:20:22.802Z,11.83
2018-08-04T01:22:52.846Z,13.70
2018-08-04T01:25:22.838Z,11.88
2018-08-04T01:27:53.094Z,13.80
2018-08-04T01:30:23.091Z,11.93
2018-08-04T01:32:53.129Z,12.10
2018-08-04T01:35:23.150Z,12.70
2018-08-04T01:37:53.198Z,11.73
2018-08-04T01:40:23.202Z,13.58
2018-08-04T01:42:53.226Z,15.68
2018-08-04T01:45:23.219Z,12.37
2018-08-04T01:47:53.539Z,12.25
2018-08-04T01:50:23.550Z,12.43
2018-08-04T01:52:53.598Z,12.73
2018-08-04T01:55:23.594Z,12.37
2018-08-04T01:57:53.457Z,13.08
2018-08-04T02:00:23.398Z,15.30
2018-08-04T02:02:53.418Z,18.75
2018-08-04T02:05:23.618Z,12.70
2018-08-04T02:07:53.639Z,12.55
2018-08-04T02:10:23.679Z,15.98
2018-08-04T02:12:53.722Z,14.03
2018-08-04T02:15:23.758Z,16.67
2018-08-04T02:17:53.802Z,13.40
2018-08-04T02:20:23.842Z,13.75
2018-08-04T02:22:53.863Z,13.10
2018-08-04T02:25:23.936Z,12.78
2018-08-04T02:27:53.950Z,13.20
2018-08-04T02:30:23.942Z,13.90
2018-08-04T02:32:53.960Z,13.85
2018-08-04T02:35:23.969Z,14.03
2018-08-04T02:37:53.975Z,16.67
2018-08-04T02:40:23.967Z,13.22
2018-08-04T02:42:54.210Z,15.10
2018-08-04T02:45:24.211Z,14.80
2018-08-04T02:47:54.238Z,17.90
2018-08-04T02:50:24.263Z,14.30
2018-08-04T02:52:54.299Z,15.48
2018-08-04T02:55:24.354Z,16.27
2018-08-04T02:57:54.388Z,14.10
2018-08-04T03:00:24.441Z,14.30
2018-08-04T03:02:54.468Z,14.30
2018-08-04T03:05:24.471Z,13.93
2018-08-04T03:07:54.559Z,16.13
2018-08-04T03:10:24.551Z,14.27
2018-08-04T03:12:54.595Z,15.63
2018-08-04T03:15:24.610Z,14.43
2018-08-04T03:17:54.623Z,14.60
2018-08-04T03:20:24.755Z,15.08
2018-08-04T03:22:54.506Z,14.13
2018-08-04T03:25:24.406Z,15.43
2018-08-04T03:27:54.415Z,14.87
2018-08-04T03:30:24.488Z,14.23
2018-08-04T03:32:54.526Z,14.20
2018-08-04T03:35:24.650Z,15.23
2018-08-04T03:37:54.671Z,13.87
2018-08-04T03:40:24.702Z,16.48
2018-08-04T03:42:54.486Z,16.63
2018-08-04T03:45:24.407Z,15.18
2018-08-04T03:47:54.450Z,15.70
2018-08-04T03:50:24.494Z,15.15
2018-08-04T03:52:54.289Z,15.05
2018-08-04T03:55:24.158Z,15.57
2018-08-04T03:57:56.226Z,15.75
2018-08-04T04:00:25.997Z,15.13
2018-08-04T04:02:55.886Z,14.98
2018-08-04T04:05:25.902Z,15.37
2018-08-04T04:07:55.922Z,15.13
2018-08-04T04:10:25.673Z,14.25
2018-08-04T04:12:55.554Z,15.50
2018-08-04T04:15:25.574Z,13.57
2018-08-04T04:17:55.682Z,14.55
2018-08-04T04:20:25.437Z,14.80
2018-08-04T04:22:55.307Z,17.00
2018-08-04T04:25:25.322Z,14.60
2018-08-04T04:27:55.317Z,13.98
2018-08-04T04:30:25.333Z,15.23
2018-08-04T04:32:55.066Z,19.50
2018-08-04T04:35:24.959Z,18.57
2018-08-04T04:37:55.001Z,14.28
2018-08-04T04:40:25.015Z,14.60
2018-08-04T04:42:55.089Z,15.38
2018-08-04T04:45:25.114Z,14.60
2018-08-04T04:47:55.119Z,15.13
2018-08-04T04:50:25.130Z,14.13
2018-08-04T04:52:55.134Z,14.87
2018-08-04T04:55:25.221Z,15.28
2018-08-04T04:57:55.186Z,14.38
2018-08-04T05:00:25.255Z,17.17
2018-08-04T05:02:55.250Z,14.45
2018-08-04T05:05:25.369Z,14.85
2018-08-04T05:07:55.362Z,14.35
2018-08-04T05:10:25.383Z,13.70
2018-08-04T05:12:55.431Z,13.45
2018-08-04T05:15:25.422Z,14.90
2018-08-04T05:17:55.418Z,13.75
2018-08-04T05:20:25.451Z,13.58
2018-08-04T05:22:55.470Z,13.03
2018-08-04T05:25:25.494Z,14.05
2018-08-04T05:27:55.510Z,13.62
2018-08-04T05:30:25.534Z,12.28
2018-08-04T05:32:55.285Z,12.28
2018-08-04T05:35:25.246Z,13.80
2018-08-04T05:37:55.258Z,12.23
2018-08-04T05:40:25.286Z,12.03
2018-08-04T05:42:55.027Z,11.45
2018-08-04T05:45:24.940Z,12.80
2018-08-04T05:47:54.942Z,12.80
2018-08-04T05:50:24.960Z,13.75
2018-08-04T05:52:55.016Z,13.55
2018-08-04T05:55:25.074Z,11.75
2018-08-04T05:57:55.153Z,11.97
2018-08-04T06:00:25.132Z,13.48
2018-08-04T06:02:55.165Z,12.68
2018-08-04T06:05:25.182Z,14.00
2018-08-04T06:07:55.183Z,12.45
2018-08-04T06:10:25.220Z,13.13
2018-08-04T06:12:54.963Z,15.58
2018-08-04T06:15:24.635Z,13.30
2018-08-04T06:17:54.506Z,14.78
2018-08-04T06:20:24.267Z,18.30
2018-08-04T06:22:54.138Z,15.75
2018-08-04T06:25:24.170Z,13.98
2018-08-04T06:27:54.185Z,17.85
2018-08-04T06:30:24.227Z,13.55
2018-08-04T06:32:54.231Z,16.25
2018-08-04T06:35:24.238Z,14.47
2018-08-04T06:37:54.226Z,13.38
2018-08-04T06:40:24.246Z,15.30
2018-08-04T06:42:54.166Z,14.47
2018-08-04T06:45:24.106Z,16.85
2018-08-04T06:47:54.124Z,15.95
2018-08-04T06:50:24.150Z,17.12
2018-08-04T06:52:54.186Z,15.88
2018-08-04T06:55:24.454Z,14.45
2018-08-04T06:57:54.458Z,14.20
2018-08-04T07:00:24.484Z,16.23
2018-08-04T07:02:54.506Z,13.93
2018-08-04T07:05:24.537Z,15.35
2018-08-04T07:07:54.550Z,14.47
2018-08-04T07:10:24.566Z,16.20
2018-08-04T07:12:54.591Z,14.53
2018-08-04T07:15:24.649Z,14.43
2018-08-04T07:17:54.762Z,13.68
2018-08-04T07:20:24.808Z,13.25
2018-08-04T07:22:54.872Z,12.95
2018-08-04T07:25:24.914Z,12.05
2018-08-04T07:27:54.950Z,12.10
2018-08-04T07:30:25.354Z,23.00
2018-08-04T07:32:55.354Z,17.27
2018-08-04T07:35:26.429Z,14.05
2018-08-04T07:37:56.433Z,17.37
2018-08-04T07:40:26.477Z,13.58
2018-08-04T07:42:56.492Z,16.15
2018-08-04T07:45:26.536Z,14.58
2018-08-04T07:47:56.702Z,13.40
2018-08-04T07:50:26.749Z,16.27
2018-08-04T07:52:56.657Z,14.90
2018-08-04T07:55:26.798Z,13.38
2018-08-04T07:57:56.818Z,14.58
2018-08-04T08:00:26.855Z,13.68
2018-08-04T08:02:56.887Z,12.78
2018-08-04T08:05:26.928Z,28.38
2018-08-04T08:07:56.966Z,27.93
2018-08-04T08:10:27.087Z,18.20
2018-08-04T08:12:57.012Z,12.98
2018-08-04T08:15:27.154Z,13.88
2018-08-04T08:17:57.194Z,12.40
2018-08-04T08:20:27.198Z,14.87
2018-08-04T08:22:57.215Z,14.25
2018-08-04T08:25:27.222Z,13.32
2018-08-04T08:27:57.259Z,16.32
2018-08-04T08:30:27.387Z,12.85
2018-08-04T08:32:57.418Z,15.55
2018-08-04T08:35:34.257Z,15.68
2018-08-04T08:38:09.393Z,13.40
2018-08-04T08:40:40.844Z,13.75
2018-08-04T08:43:12.058Z,18.40
2018-08-04T08:45:43.085Z,19.65
2018-08-04T08:48:14.119Z,17.82
2018-08-04T08:50:45.618Z,19.17
2018-08-04T08:53:16.311Z,13.62
2018-08-04T08:55:47.390Z,11.83
2018-08-04T08:58:17.814Z,14.78
2018-08-04T09:00:48.143Z,16.12
2018-08-04T09:03:18.254Z,14.47
2018-08-04T09:05:49.230Z,13.22
2018-08-04T09:08:20.049Z,14.58
2018-08-04T09:10:50.388Z,12.20
2018-08-04T09:13:20.434Z,13.35
2018-08-04T09:15:50.454Z,15.80
2018-08-04T09:18:20.710Z,13.83
2018-08-04T09:20:50.718Z,17.32
2018-08-04T09:23:20.874Z,13.90
2018-08-04T09:25:51.042Z,16.20
2018-08-04T09:28:21.050Z,13.13
2018-08-04T09:30:51.316Z,15.88
2018-08-04T09:33:21.675Z,14.55
2018-08-04T09:35:51.747Z,11.68
2018-08-04T09:38:21.772Z,18.27
2018-08-04T09:40:51.786Z,14.50
2018-08-04T09:43:21.875Z,15.10
2018-08-04T09:45:51.902Z,14.20
2018-08-04T09:48:21.930Z,16.12
2018-08-04T09:50:52.031Z,15.25
2018-08-04T09:53:22.151Z,19.75
2018-08-04T09:55:52.215Z,15.08
2018-08-04T09:58:22.263Z,14.10
2018-08-04T10:00:57.572Z,14.93
2018-08-04T10:03:27.586Z,15.05
2018-08-04T10:05:57.600Z,15.20
2018-08-04T10:08:27.806Z,17.92
2018-08-04T10:10:57.817Z,21.00
2018-08-04T10:13:27.951Z,20.85
2018-08-04T10:15:57.930Z,20.62
2018-08-04T10:18:28.058Z,17.12
2018-08-04T10:20:58.090Z,15.50
2018-08-04T10:23:28.150Z,17.45
2018-08-04T10:25:58.228Z,17.95
2018-08-04T10:28:28.219Z,20.65
2018-08-04T10:30:58.273Z,19.60
2018-08-04T10:33:28.299Z,17.30
2018-08-04T10:35:58.303Z,20.17
2018-08-04T10:38:28.376Z,17.60
2018-08-04T10:40:58.331Z,17.10
2018-08-04T10:43:28.378Z,17.02
2018-08-04T10:45:58.399Z,17.50
2018-08-04T10:48:28.422Z,17.62
2018-08-04T10:50:58.497Z,14.45
2018-08-04T10:53:28.522Z,17.17
2018-08-04T10:55:58.591Z,15.55
2018-08-04T10:58:28.409Z,17.87
2018-08-04T11:00:58.325Z,13.62
2018-08-04T11:03:28.348Z,14.35
2018-08-04T11:05:58.338Z,12.82
2018-08-04T11:08:28.430Z,11.33
2018-08-04T11:10:58.455Z,13.70
2018-08-04T11:13:28.483Z,16.00
2018-08-04T11:15:58.519Z,17.45
2018-08-04T11:18:28.538Z,20.65
2018-08-04T11:20:58.621Z,15.43
2018-08-04T11:23:28.790Z,10.72
2018-08-04T11:25:59.151Z,12.75
2018-08-04T11:28:29.424Z,13.13
2018-08-04T11:30:59.551Z,11.83
2018-08-04T11:33:29.587Z,12.00
2018-08-04T11:35:59.686Z,10.13
2018-08-04T11:38:29.606Z,10.50
2018-08-04T11:40:59.595Z,10.60
2018-08-04T11:43:29.393Z,11.33
2018-08-04T11:45:59.274Z,11.83
2018-08-04T11:48:29.294Z,10.55
2018-08-04T11:50:59.039Z,10.65
2018-08-04T11:53:29.276Z,11.60
2018-08-04T11:55:59.333Z,11.48
2018-08-04T11:58:29.427Z,11.18
2018-08-04T12:00:59.450Z,10.10
2018-08-04T12:03:29.474Z,11.73
2018-08-04T12:05:59.486Z,8.83
2018-08-04T12:08:29.499Z,8.93
2018-08-04T12:10:59.739Z,9.20
2018-08-04T12:13:29.795Z,9.78
2018-08-04T12:15:59.890Z,9.83
2018-08-04T12:18:29.684Z,9.48
2018-08-04T12:20:59.570Z,9.48
2018-08-04T12:23:29.799Z,13.35
2018-08-04T12:25:59.882Z,11.73
2018-08-04T12:28:29.952Z,12.30
2018-08-04T12:31:00.007Z,16.48
2018-08-04T12:33:30.070Z,10.55
2018-08-04T12:36:00.207Z,11.25
2018-08-04T12:38:30.399Z,17.62
2018-08-04T12:41:00.528Z,13.68
2018-08-04T12:43:30.615Z,11.48
2018-08-04T12:46:00.830Z,83.00
2018-08-04T12:48:34.061Z,21.50
2018-08-04T12:51:10.439Z,21.75
2018-08-04T12:53:42.427Z,14.75
2018-08-04T12:56:13.934Z,10.13
2018-08-04T12:58:46.001Z,10.70
2018-08-04T13:01:17.144Z,8.98
2018-08-04T13:03:49.456Z,8.73
2018-08-04T13:06:19.963Z,9.78
2018-08-04T13:08:50.029Z,10.40
2018-08-04T13:11:20.422Z,9.78
2018-08-04T13:13:50.738Z,12.13
2018-08-04T13:16:21.037Z,9.13
2018-08-04T13:18:51.178Z,9.30
2018-08-04T13:21:21.334Z,9.28
2018-08-04T13:23:51.470Z,9.60
2018-08-04T13:26:21.491Z,10.45
2018-08-04T13:28:51.558Z,8.25
2018-08-04T13:31:21.621Z,8.78
2018-08-04T13:33:51.754Z,10.80
2018-08-04T13:36:21.798Z,9.45
2018-08-04T13:38:53.222Z,12.40
2018-08-04T13:41:23.483Z,13.55
2018-08-04T13:43:53.562Z,16.50
2018-08-04T13:46:23.594Z,11.03
2018-08-04T13:48:53.722Z,10.85
2018-08-04T13:51:23.734Z,11.35
2018-08-04T13:53:53.767Z,12.95
2018-08-04T13:56:23.811Z,11.68
2018-08-04T13:58:53.834Z,15.15
2018-08-04T14:01:23.864Z,11.03
2018-08-04T14:03:53.893Z,11.15
2018-08-04T14:06:29.234Z,10.65
2018-08-04T14:08:59.469Z,12.00
2018-08-04T14:11:29.466Z,10.43
2018-08-04T14:13:59.492Z,12.30
2018-08-04T14:16:29.488Z,10.93
2018-08-04T14:18:59.522Z,15.63
2018-08-04T14:21:30.062Z,12.13
2018-08-04T14:24:09.443Z,12.20
2018-08-04T14:26:43.949Z,12.58
2018-08-04T14:29:15.112Z,10.68
2018-08-04T14:31:46.391Z,9.93
2018-08-04T14:34:17.853Z,12.33
2018-08-04T14:36:48.518Z,12.75
2018-08-04T14:39:19.566Z,10.03
2018-08-04T14:41:49.552Z,10.10
2018-08-04T14:44:20.014Z,10.20
2018-08-04T14:46:50.275Z,10.82
2018-08-04T14:49:20.474Z,9.70
2018-08-04T14:51:50.722Z,10.88
2018-08-04T14:54:20.690Z,9.45
2018-08-04T14:56:50.507Z,13.95
2018-08-04T14:59:20.414Z,11.55
2018-08-04T15:01:50.551Z,11.60
2018-08-04T15:04:20.623Z,9.00
2018-08-04T15:06:50.744Z,9.55
2018-08-04T15:09:20.742Z,8.93
2018-08-04T15:11:50.757Z,9.93
2018-08-04T15:14:20.814Z,8.45
2018-08-04T15:16:50.871Z,12.47
2018-08-04T15:19:20.947Z,9.85
2018-08-04T15:21:51.048Z,10.08
2018-08-04T15:24:21.052Z,10.38
2018-08-04T15:26:51.184Z,10.30
2018-08-04T15:29:21.137Z,7.85
2018-08-04T15:31:51.234Z,9.38
2018-08-04T15:34:21.278Z,8.70
2018-08-04T15:36:51.310Z,7.78
2018-08-04T15:39:21.301Z,7.70
2018-08-04T15:41:51.334Z,9.33
2018-08-04T15:44:21.379Z,9.83
2018-08-04T15:46:51.413Z,9.33
2018-08-04T15:49:21.499Z,8.43
2018-08-04T15:51:51.646Z,7.97
2018-08-04T15:54:21.690Z,9.35
2018-08-04T15:56:51.784Z,9.05
2018-08-04T15:59:21.806Z,9.20
2018-08-04T16:01:51.881Z,7.45
2018-08-04T16:04:21.895Z,7.87
2018-08-04T16:06:51.938Z,9.03
2018-08-04T16:09:21.930Z,7.58
2018-08-04T16:11:51.975Z,8.65
2018-08-04T16:14:22.009Z,9.83
2018-08-04T16:16:52.072Z,8.70
2018-08-04T16:19:22.026Z,8.68
2018-08-04T16:21:52.094Z,8.53
2018-08-04T16:24:22.099Z,9.98
2018-08-04T16:26:52.127Z,15.43
2018-08-04T16:29:22.165Z,9.43
2018-08-04T16:31:52.211Z,8.98
2018-08-04T16:34:22.252Z,8.63
2018-08-04T16:36:52.314Z,8.60
2018-08-04T16:39:22.319Z,8.50
2018-08-04T16:41:52.420Z,11.10
2018-08-04T16:44:22.389Z,7.90
2018-08-04T16:46:52.407Z,8.73
2018-08-04T16:49:22.417Z,8.28
2018-08-04T16:51:52.407Z,8.53
2018-08-04T16:54:22.406Z,7.92
2018-08-04T16:56:52.402Z,9.08
2018-08-04T16:59:22.436Z,12.35
2018-08-04T17:01:52.418Z,14.63
2018-08-04T17:04:22.434Z,8.65
2018-08-04T17:06:52.436Z,7.90
2018-08-04T17:09:22.434Z,8.45
2018-08-04T17:11:52.662Z,8.05
2018-08-04T17:14:22.683Z,7.55
2018-08-04T17:16:52.698Z,10.68
2018-08-04T17:19:22.722Z,9.28
2018-08-04T17:21:52.631Z,10.63
2018-08-04T17:24:22.550Z,7.55
2018-08-04T17:26:52.878Z,7.90
2018-08-04T17:29:23.053Z,11.25
2018-08-04T17:31:53.263Z,11.57
2018-08-04T17:34:23.258Z,7.78
2018-08-04T17:36:53.472Z,8.85
2018-08-04T17:39:23.482Z,9.28
2018-08-04T17:41:53.634Z,7.65
2018-08-04T17:44:23.709Z,7.37
2018-08-04T17:46:53.673Z,7.55
2018-08-04T17:49:23.685Z,10.05
2018-08-04T17:51:53.766Z,8.35
2018-08-04T17:54:23.870Z,10.18
2018-08-04T17:56:53.914Z,8.10
2018-08-04T17:59:23.906Z,8.75
2018-08-04T18:01:53.948Z,9.85
2018-08-04T18:04:24.003Z,8.23
2018-08-04T18:06:54.136Z,9.28
2018-08-04T18:09:24.411Z,8.73
2018-08-04T18:11:54.419Z,8.43
2018-08-04T18:14:24.426Z,7.75
2018-08-04T18:16:54.450Z,8.38
2018-08-04T18:19:24.479Z,7.72
2018-08-04T18:21:54.516Z,7.67
2018-08-04T18:24:24.726Z,9.40
2018-08-04T18:26:54.742Z,10.45
2018-08-04T18:29:24.763Z,8.50
2018-08-04T18:31:54.781Z,9.10
2018-08-04T18:34:24.863Z,16.57
2018-08-04T18:36:54.890Z,18.35
2018-08-04T18:39:24.934Z,9.50
2018-08-04T18:41:54.979Z,8.83
2018-08-04T18:44:25.040Z,11.03
2018-08-04T18:46:55.379Z,10.13
2018-08-04T18:49:25.426Z,11.75
2018-08-04T18:51:55.466Z,10.58
2018-08-04T18:54:25.516Z,7.80
2018-08-04T18:56:55.259Z,7.92
2018-08-04T18:59:25.154Z,13.70
2018-08-04T19:01:55.271Z,8.68
2018-08-04T19:04:25.295Z,12.70
2018-08-04T19:06:55.307Z,8.15
2018-08-04T19:09:25.326Z,9.75
2018-08-04T19:11:55.142Z,10.80
2018-08-04T19:14:25.074Z,8.68
2018-08-04T19:16:55.081Z,10.43
2018-08-04T19:19:25.102Z,8.00
2018-08-04T19:21:55.415Z,10.95
2018-08-04T19:24:25.450Z,7.83
2018-08-04T19:26:55.251Z,8.45
2018-08-04T19:29:25.201Z,11.18
2018-08-04T19:31:55.333Z,7.72
2018-08-04T19:34:25.442Z,8.03
2018-08-04T19:36:55.458Z,12.28
2018-08-04T19:39:25.495Z,12.73
2018-08-04T19:41:55.695Z,9.90
2018-08-04T19:44:25.710Z,7.97
2018-08-04T19:46:55.751Z,7.22
2018-08-04T19:49:25.894Z,9.58
2018-08-04T19:51:56.003Z,9.95
2018-08-04T19:54:26.026Z,10.25
2018-08-04T19:56:56.554Z,5.37
2018-08-04T19:59:26.571Z,10.13
2018-08-04T20:01:56.826Z,7.00
2018-08-04T20:04:26.862Z,9.40
2018-08-04T20:06:56.871Z,6.97
2018-08-04T20:09:26.884Z,7.10
2018-08-04T20:11:56.990Z,5.37
2018-08-04T20:14:27.009Z,8.45
2018-08-04T20:16:57.055Z,4.97
2018-08-04T20:19:27.085Z,4.97
2018-08-04T20:21:57.176Z,6.45
2018-08-04T20:24:27.197Z,4.40
2018-08-04T20:26:57.215Z,4.53
2018-08-04T20:29:27.228Z,7.22
2018-08-04T20:31:57.308Z,4.17
2018-08-04T20:34:27.325Z,6.67
2018-08-04T20:36:57.359Z,5.83
2018-08-04T20:39:27.398Z,9.15
2018-08-04T20:41:57.442Z,4.15
2018-08-04T20:44:27.458Z,3.77
2018-08-04T20:46:57.456Z,4.92
2018-08-04T20:49:27.478Z,5.37
2018-08-04T20:51:57.713Z,6.45
2018-08-04T20:54:27.746Z,6.67
2018-08-04T20:56:57.754Z,5.35
2018-08-04T20:59:27.785Z,4.78
2018-08-04T21:02:06.366Z,4.05
2018-08-04T21:04:40.607Z,4.92
2018-08-04T21:07:11.949Z,3.60
2018-08-04T21:09:42.782Z,4.83
2018-08-04T21:12:14.920Z,3.70
2018-08-04T21:14:46.200Z,5.35
2018-08-04T21:17:18.491Z,6.22
2018-08-04T21:19:49.419Z,4.47
2018-08-04T21:22:19.760Z,4.62
2018-08-04T21:24:50.326Z,4.60
2018-08-04T21:27:20.442Z,3.25
2018-08-04T21:29:51.070Z,4.70
2018-08-04T21:32:21.062Z,3.52
2018-08-04T21:34:51.223Z,5.33
2018-08-04T21:37:21.266Z,3.98
2018-08-04T21:39:51.369Z,3.40
2018-08-04T21:42:21.370Z,3.90
2018-08-04T21:44:51.435Z,3.40
2018-08-04T21:47:21.426Z,3.60
2018-08-04T21:49:51.590Z,4.90
2018-08-04T21:52:21.620Z,3.58
2018-08-04T21:54:51.719Z,5.20
2018-08-04T21:57:21.644Z,3.87
2018-08-04T21:59:51.702Z,4.95
2018-08-04T22:02:21.701Z,6.12
2018-08-04T22:04:51.806Z,5.12
2018-08-04T22:07:43.366Z,4.25
2018-08-04T22:10:15.435Z,4.08
2018-08-04T22:12:46.341Z,4.90
2018-08-04T22:15:18.490Z,5.35
2018-08-04T22:17:50.179Z,4.92
2018-08-04T22:20:21.602Z,3.80
2018-08-04T22:22:51.727Z,4.53
2018-08-04T22:25:23.014Z,4.55
2018-08-04T22:27:53.242Z,3.92
2018-08-04T22:30:23.717Z,3.42
2018-08-04T22:32:53.839Z,3.50
2018-08-04T22:35:24.007Z,4.40
2018-08-04T22:37:53.842Z,6.42
2018-08-04T22:40:23.762Z,7.17
2018-08-04T22:42:53.513Z,3.75
2018-08-04T22:45:58.140Z,5.92
2018-08-04T22:48:28.186Z,3.00
2018-08-04T22:50:58.246Z,4.45
2018-08-04T22:53:28.270Z,5.35
2018-08-04T22:55:58.418Z,2.90
2018-08-04T22:58:28.402Z,4.80
2018-08-04T23:00:58.554Z,3.40
2018-08-04T23:03:28.564Z,4.30
2018-08-04T23:05:58.882Z,3.60
2018-08-04T23:08:28.865Z,3.25
2018-08-04T23:10:58.919Z,3.75
2018-08-04T23:13:28.938Z,3.17
2018-08-04T23:15:59.134Z,3.20
2018-08-04T23:18:29.132Z,5.35
2018-08-04T23:20:59.162Z,3.17
2018-08-04T23:23:29.150Z,4.83
2018-08-04T23:25:59.252Z,2.90
2018-08-04T23:28:29.224Z,4.17
2018-08-04T23:30:59.237Z,3.72
2018-08-04T23:33:29.234Z,4.92
2018-08-04T23:35:59.324Z,3.92
2018-08-04T23:38:29.264Z,4.33
2018-08-04T23:40:59.322Z,2.80
2018-08-04T23:43:29.067Z,2.90
2018-08-04T23:45:58.675Z,3.05
2018-08-04T23:48:28.576Z,4.50
2018-08-04T23:50:58.587Z,3.35
2018-08-04T23:53:28.601Z,5.10
2018-08-04T23:55:58.598Z,5.30
2018-08-04T23:58:28.609Z,3.52
